Harmony, North Carolina
Current Conditions -  °F | °C
As of 11:15 AM on Saturday 20 Dec 2014 (Local Time) from KSVH Reporting Station
Overcast Overcast  
Wind Chill: 36°   Ceiling: 3800
Heat Index: 40°   Visibility: 10mi
Dew Point: 30°   Wind: 5mph
Humidity: 69%   Direction: 70°ENE
Pressure: 30.25"   Gusts: NA
Location:  35.96°N, 80.77°W
Report Text: KSVH 201615Z AUTO 07004KT 10SM SCT029 OVC038 04/M01 A3025 RMK AO2 T00421011
Loading
Personal Weather Stations






























Interactive Weather Map New forecast layout! Learn more

10-Day Weather Forecast

Advertisements
Track Severe Weather on mobile